The Farmers Guide 72-hour weather forecast

Enter Postcode:

Scattered Showers

(18:00)

12.8°C

IP2 0SS

Wind Soil
Date Time Weather Temp Rain Humid Cloud Press (mph) Temp Moist
24/04 18:00 12.8°C 0.6mm 83% 83% 1017mb 6e (95 degrees) n/a 0.2%
21:00 9.2°C 0.0mm 96% 40% 1017mb 6ne (55 degrees) n/a 0.2%
25/04 00:00 8.9°C 0.0mm 98% 63% 1015mb 8nne (22 degrees) n/a 0.2%
03:00 8.9°C 0.0mm 99% 83% 1014mb 8n (9 degrees) n/a 0.2%
06:00 10.6°C 0.0mm 96% 91% 1013mb 10nne (22 degrees) n/a 0.2%
09:00 13.0°C 0.0mm 91% 100% 1012mb 8ne (47 degrees) n/a 0.2%
12:00 16.2°C 0.2mm 78% 99% 1011mb 8e (80 degrees) n/a 0.2%
15:00 17.4°C 0.0mm 73% 71% 1009mb 9e (95 degrees) n/a 0.2%
18:00 14.7°C 0.9mm 91% 73% 1007mb 6see (105 degrees) n/a 0.2%
21:00 12.7°C 1.7mm 96% 95% 1007mb 7see (115 degrees) n/a 0.2%
26/04 00:00 11.7°C 2.2mm 99% 71% 1006mb 9ssw (203 degrees) n/a 0.2%
03:00 9.9°C 0.0mm 94% 80% 1005mb 11ssw (199 degrees) n/a 0.2%
06:00 9.4°C 0.0mm 94% 71% 1006mb 12s (174 degrees) n/a 0.2%
09:00 11.0°C 1.3mm 95% 88% 1006mb 13s (180 degrees) n/a 0.2%
12:00 12.5°C 1.8mm 82% 93% 1006mb 14sse (166 degrees) n/a 0.2%
15:00 13.3°C 0.2mm 71% 100% 1005mb 15sse (165 degrees) n/a 0.2%
18:00 11.8°C 0.2mm 80% 100% 1005mb 10sse (153 degrees) n/a 0.2%
21:00 9.0°C 0.0mm 96% 68% 1006mb 8sse (147 degrees) n/a 0.2%
27/04 00:00 8.4°C 0.0mm 97% 35% 1005mb 8se (146 degrees) n/a 0.2%
03:00 7.8°C 0.0mm 97% 0% 1005mb 7sse (163 degrees) n/a 0.2%
06:00 9.0°C 0.0mm 94% 1% 1005mb 8sse (148 degrees) n/a 0.2%
09:00 12.4°C 0.2mm 79% 24% 1006mb 13sse (152 degrees) n/a 0.2%
12:00 14.0°C 0.6mm 73% 50% 1007mb 13sse (153 degrees) n/a 0.2%
15:00 14.0°C 0.2mm 70% 95% 1008mb 11se (146 degrees) n/a 0.2%
The Farmers Guide weather forecast is a free service for users of this website.
 
We now carry forecasts based on postcodes. Just enter your postcode and the weather page will display the forecast for the following 72 hours, broken down into three-hour intervals.
 
The forecast data provided for each three-hour period includes: a general graphic showing the likely weather conditions; average temperatures for the period; cloud cover; barometric pressure; wind speed and direction; humidity; and rainfall.
 
An indication of the likely soil temperature and soil moisture will also be displayed for most postcodes, although this data is not available for every area.
 
We hope you will find this service useful and would welcome any feedback from you.
 
 

Search

Read our classified section online

 
 
March
2014
April
2014
 

Advertisments